sensor_id;sensor_type;location;lat;lon;timestamp;P1;durP1;ratioP1;P2;durP2;ratioP2
61091;SDS011;46975;51.898;11.444;2022-11-20T00:00:44;10.73;;;3.88;;
61091;SDS011;46975;51.898;11.444;2022-11-20T00:03:10;9.82;;;4.50;;
61091;SDS011;46975;51.898;11.444;2022-11-20T00:05:36;10.90;;;4.50;;
61091;SDS011;46975;51.898;11.444;2022-11-20T00:08:01;10.23;;;4.78;;
61091;SDS011;46975;51.898;11.444;2022-11-20T00:10:27;7.93;;;4.22;;
61091;SDS011;46975;51.898;11.444;2022-11-20T00:12:53;9.77;;;4.95;;
61091;SDS011;46975;51.898;11.444;2022-11-20T00:15:18;12.07;;;5.38;;
61091;SDS011;46975;51.898;11.444;2022-11-20T00:17:44;8.80;;;4.50;;
61091;SDS011;46975;51.898;11.444;2022-11-20T00:20:10;9.65;;;4.85;;
61091;SDS011;46975;51.898;11.444;2022-11-20T00:22:36;11.60;;;6.53;;
61091;SDS011;46975;51.898;11.444;2022-11-20T00:25:02;10.02;;;5.72;;
61091;SDS011;46975;51.898;11.444;2022-11-20T00:27:27;9.77;;;5.70;;
61091;SDS011;46975;51.898;11.444;2022-11-20T00:29:53;10.43;;;5.10;;
61091;SDS011;46975;51.898;11.444;2022-11-20T00:32:20;11.43;;;5.78;;
61091;SDS011;46975;51.898;11.444;2022-11-20T00:34:46;10.57;;;4.43;;
61091;SDS011;46975;51.898;11.444;2022-11-20T00:37:11;13.20;;;5.45;;
61091;SDS011;46975;51.898;11.444;2022-11-20T00:39:37;10.23;;;3.90;;
61091;SDS011;46975;51.898;11.444;2022-11-20T00:42:03;10.70;;;4.90;;
61091;SDS011;46975;51.898;11.444;2022-11-20T00:44:28;9.35;;;5.13;;
61091;SDS011;46975;51.898;11.444;2022-11-20T00:46:54;10.63;;;4.78;;
61091;SDS011;46975;51.898;11.444;2022-11-20T00:49:19;8.98;;;4.93;;
61091;SDS011;46975;51.898;11.444;2022-11-20T00:51:45;10.82;;;4.95;;
61091;SDS011;46975;51.898;11.444;2022-11-20T00:54:11;11.95;;;5.63;;
61091;SDS011;46975;51.898;11.444;2022-11-20T00:56:36;6.30;;;3.92;;
61091;SDS011;46975;51.898;11.444;2022-11-20T00:59:02;8.80;;;4.53;;
61091;SDS011;46975;51.898;11.444;2022-11-20T01:01:28;10.52;;;4.38;;
61091;SDS011;46975;51.898;11.444;2022-11-20T01:03:54;13.73;;;6.30;;
61091;SDS011;46975;51.898;11.444;2022-11-20T01:08:49;15.63;;;5.95;;
61091;SDS011;46975;51.898;11.444;2022-11-20T01:11:17;12.40;;;5.93;;
61091;SDS011;46975;51.898;11.444;2022-11-20T01:13:47;13.23;;;7.43;;
61091;SDS011;46975;51.898;11.444;2022-11-20T01:16:33;19.00;;;7.70;;
61091;SDS011;46975;51.898;11.444;2022-11-20T01:19:02;19.48;;;9.95;;
61091;SDS011;46975;51.898;11.444;2022-11-20T01:21:31;9.95;;;5.60;;
61091;SDS011;46975;51.898;11.444;2022-11-20T01:23:58;8.88;;;4.68;;
61091;SDS011;46975;51.898;11.444;2022-11-20T01:26:25;7.47;;;4.50;;
61091;SDS011;46975;51.898;11.444;2022-11-20T01:28:53;8.52;;;3.95;;
61091;SDS011;46975;51.898;11.444;2022-11-20T01:31:27;7.53;;;4.75;;
61091;SDS011;46975;51.898;11.444;2022-11-20T01:33:57;10.50;;;5.10;;
61091;SDS011;46975;51.898;11.444;2022-11-20T01:36:25;8.15;;;4.55;;
61091;SDS011;46975;51.898;11.444;2022-11-20T01:38:56;8.97;;;4.93;;
61091;SDS011;46975;51.898;11.444;2022-11-20T01:41:25;8.57;;;5.10;;
61091;SDS011;46975;51.898;11.444;2022-11-20T01:44:13;8.00;;;5.07;;
61091;SDS011;46975;51.898;11.444;2022-11-20T01:46:42;19.67;;;8.40;;
61091;SDS011;46975;51.898;11.444;2022-11-20T01:52:04;21.58;;;7.85;;
61091;SDS011;46975;51.898;11.444;2022-11-20T01:54:42;15.65;;;8.02;;
61091;SDS011;46975;51.898;11.444;2022-11-20T01:57:12;12.73;;;7.30;;
61091;SDS011;46975;51.898;11.444;2022-11-20T01:59:41;18.27;;;7.78;;
61091;SDS011;46975;51.898;11.444;2022-11-20T02:02:12;16.52;;;7.18;;
61091;SDS011;46975;51.898;11.444;2022-11-20T02:04:38;14.98;;;6.80;;
61091;SDS011;46975;51.898;11.444;2022-11-20T02:07:04;15.68;;;7.20;;
61091;SDS011;46975;51.898;11.444;2022-11-20T02:09:30;16.13;;;6.32;;
61091;SDS011;46975;51.898;11.444;2022-11-20T02:11:56;13.52;;;5.13;;
61091;SDS011;46975;51.898;11.444;2022-11-20T02:14:23;7.80;;;4.20;;
61091;SDS011;46975;51.898;11.444;2022-11-20T02:16:50;9.63;;;4.30;;
61091;SDS011;46975;51.898;11.444;2022-11-20T02:24:47;7.95;;;4.28;;
61091;SDS011;46975;51.898;11.444;2022-11-20T02:27:15;8.50;;;5.00;;
61091;SDS011;46975;51.898;11.444;2022-11-20T02:29:58;13.32;;;5.80;;
61091;SDS011;46975;51.898;11.444;2022-11-20T02:32:28;23.73;;;9.27;;
61091;SDS011;46975;51.898;11.444;2022-11-20T02:34:58;12.77;;;5.82;;
61091;SDS011;46975;51.898;11.444;2022-11-20T02:37:32;17.38;;;7.20;;
61091;SDS011;46975;51.898;11.444;2022-11-20T02:40:01;26.48;;;10.27;;
61091;SDS011;46975;51.898;11.444;2022-11-20T02:42:27;18.88;;;8.98;;
61091;SDS011;46975;51.898;11.444;2022-11-20T02:44:52;14.77;;;5.95;;
61091;SDS011;46975;51.898;11.444;2022-11-20T02:47:18;17.38;;;7.95;;
61091;SDS011;46975;51.898;11.444;2022-11-20T02:49:43;26.42;;;8.93;;
61091;SDS011;46975;51.898;11.444;2022-11-20T02:52:09;29.35;;;12.13;;
61091;SDS011;46975;51.898;11.444;2022-11-20T02:54:34;32.17;;;11.90;;
61091;SDS011;46975;51.898;11.444;2022-11-20T02:57:00;45.05;;;14.63;;
61091;SDS011;46975;51.898;11.444;2022-11-20T02:59:26;35.03;;;13.23;;
61091;SDS011;46975;51.898;11.444;2022-11-20T03:01:51;38.55;;;14.25;;
61091;SDS011;46975;51.898;11.444;2022-11-20T03:04:17;41.22;;;12.63;;
61091;SDS011;46975;51.898;11.444;2022-11-20T03:06:43;35.63;;;11.40;;
61091;SDS011;46975;51.898;11.444;2022-11-20T03:09:08;31.23;;;12.20;;
61091;SDS011;46975;51.898;11.444;2022-11-20T03:11:34;22.80;;;9.43;;
61091;SDS011;46975;51.898;11.444;2022-11-20T03:14:03;18.80;;;6.90;;
61091;SDS011;46975;51.898;11.444;2022-11-20T03:16:30;7.40;;;3.58;;
61091;SDS011;46975;51.898;11.444;2022-11-20T03:18:56;5.65;;;3.63;;
61091;SDS011;46975;51.898;11.444;2022-11-20T03:21:22;5.35;;;3.40;;
61091;SDS011;46975;51.898;11.444;2022-11-20T03:23:47;7.78;;;3.42;;
61091;SDS011;46975;51.898;11.444;2022-11-20T03:26:17;7.82;;;4.00;;
61091;SDS011;46975;51.898;11.444;2022-11-20T03:28:48;8.43;;;3.47;;
61091;SDS011;46975;51.898;11.444;2022-11-20T03:31:20;9.63;;;4.32;;
61091;SDS011;46975;51.898;11.444;2022-11-20T03:33:47;6.25;;;3.25;;
61091;SDS011;46975;51.898;11.444;2022-11-20T03:36:14;12.63;;;4.47;;
61091;SDS011;46975;51.898;11.444;2022-11-20T03:38:41;9.35;;;4.57;;
61091;SDS011;46975;51.898;11.444;2022-11-20T03:41:14;8.93;;;4.07;;
61091;SDS011;46975;51.898;11.444;2022-11-20T03:43:41;8.88;;;3.90;;
61091;SDS011;46975;51.898;11.444;2022-11-20T03:46:07;8.55;;;5.35;;
61091;SDS011;46975;51.898;11.444;2022-11-20T03:48:33;7.45;;;3.90;;
61091;SDS011;46975;51.898;11.444;2022-11-20T03:53:33;7.85;;;4.20;;
61091;SDS011;46975;51.898;11.444;2022-11-20T03:55:59;8.38;;;3.90;;
61091;SDS011;46975;51.898;11.444;2022-11-20T03:58:25;10.25;;;4.45;;
61091;SDS011;46975;51.898;11.444;2022-11-20T04:00:50;8.57;;;4.90;;
61091;SDS011;46975;51.898;11.444;2022-11-20T04:03:16;6.88;;;3.45;;
61091;SDS011;46975;51.898;11.444;2022-11-20T04:05:41;8.05;;;3.85;;
61091;SDS011;46975;51.898;11.444;2022-11-20T04:08:07;8.07;;;4.47;;
61091;SDS011;46975;51.898;11.444;2022-11-20T04:10:33;7.22;;;3.72;;
61091;SDS011;46975;51.898;11.444;2022-11-20T04:12:58;9.25;;;3.67;;
61091;SDS011;46975;51.898;11.444;2022-11-20T04:15:24;6.20;;;3.90;;
61091;SDS011;46975;51.898;11.444;2022-11-20T04:17:50;10.65;;;5.40;;
61091;SDS011;46975;51.898;11.444;2022-11-20T04:20:15;12.77;;;4.57;;
61091;SDS011;46975;51.898;11.444;2022-11-20T04:22:41;8.00;;;4.22;;
61091;SDS011;46975;51.898;11.444;2022-11-20T04:25:07;8.32;;;4.53;;
61091;SDS011;46975;51.898;11.444;2022-11-20T04:27:33;8.32;;;4.07;;
61091;SDS011;46975;51.898;11.444;2022-11-20T04:29:58;9.55;;;4.28;;
61091;SDS011;46975;51.898;11.444;2022-11-20T04:32:24;6.20;;;3.45;;
61091;SDS011;46975;51.898;11.444;2022-11-20T04:34:49;8.07;;;3.25;;
61091;SDS011;46975;51.898;11.444;2022-11-20T04:37:15;5.90;;;3.10;;
61091;SDS011;46975;51.898;11.444;2022-11-20T04:39:41;7.32;;;3.67;;
61091;SDS011;46975;51.898;11.444;2022-11-20T04:42:08;7.00;;;2.95;;
61091;SDS011;46975;51.898;11.444;2022-11-20T04:44:53;6.22;;;2.35;;
61091;SDS011;46975;51.898;11.444;2022-11-20T04:47:19;5.80;;;2.15;;
61091;SDS011;46975;51.898;11.444;2022-11-20T04:49:45;3.65;;;2.17;;
61091;SDS011;46975;51.898;11.444;2022-11-20T04:52:10;5.63;;;2.38;;
61091;SDS011;46975;51.898;11.444;2022-11-20T04:54:36;4.82;;;2.20;;
61091;SDS011;46975;51.898;11.444;2022-11-20T04:57:02;3.65;;;1.95;;
61091;SDS011;46975;51.898;11.444;2022-11-20T04:59:28;4.68;;;1.75;;
61091;SDS011;46975;51.898;11.444;2022-11-20T05:01:53;3.90;;;2.08;;
61091;SDS011;46975;51.898;11.444;2022-11-20T05:04:19;4.45;;;2.28;;
61091;SDS011;46975;51.898;11.444;2022-11-20T05:06:45;4.35;;;2.20;;
61091;SDS011;46975;51.898;11.444;2022-11-20T05:09:11;5.25;;;2.17;;
61091;SDS011;46975;51.898;11.444;2022-11-20T05:11:37;6.13;;;2.60;;
61091;SDS011;46975;51.898;11.444;2022-11-20T05:14:03;6.53;;;3.22;;
61091;SDS011;46975;51.898;11.444;2022-11-20T05:16:28;4.85;;;2.92;;
61091;SDS011;46975;51.898;11.444;2022-11-20T05:18:54;4.82;;;2.80;;
61091;SDS011;46975;51.898;11.444;2022-11-20T05:21:21;6.78;;;3.25;;
61091;SDS011;46975;51.898;11.444;2022-11-20T05:23:47;6.47;;;3.00;;
61091;SDS011;46975;51.898;11.444;2022-11-20T05:26:14;4.13;;;2.58;;
61091;SDS011;46975;51.898;11.444;2022-11-20T05:28:44;5.65;;;3.03;;
61091;SDS011;46975;51.898;11.444;2022-11-20T05:31:11;5.35;;;2.85;;
61091;SDS011;46975;51.898;11.444;2022-11-20T05:36:05;4.97;;;2.38;;
61091;SDS011;46975;51.898;11.444;2022-11-20T05:38:31;5.70;;;2.55;;
61091;SDS011;46975;51.898;11.444;2022-11-20T05:41:30;3.97;;;2.20;;
61091;SDS011;46975;51.898;11.444;2022-11-20T05:43:49;5.22;;;3.15;;
61091;SDS011;46975;51.898;11.444;2022-11-20T05:46:16;8.65;;;3.55;;
61091;SDS011;46975;51.898;11.444;2022-11-20T05:48:43;11.98;;;4.88;;
61091;SDS011;46975;51.898;11.444;2022-11-20T05:51:11;5.88;;;3.38;;
61091;SDS011;46975;51.898;11.444;2022-11-20T05:53:38;4.93;;;2.92;;
61091;SDS011;46975;51.898;11.444;2022-11-20T05:56:05;5.50;;;2.55;;
61091;SDS011;46975;51.898;11.444;2022-11-20T05:58:32;6.35;;;3.47;;
61091;SDS011;46975;51.898;11.444;2022-11-20T06:01:05;6.68;;;2.67;;
61091;SDS011;46975;51.898;11.444;2022-11-20T06:03:39;5.03;;;2.90;;
61091;SDS011;46975;51.898;11.444;2022-11-20T06:06:07;5.15;;;2.05;;
61091;SDS011;46975;51.898;11.444;2022-11-20T06:08:33;7.13;;;2.78;;
61091;SDS011;46975;51.898;11.444;2022-11-20T06:11:02;5.07;;;2.60;;
61091;SDS011;46975;51.898;11.444;2022-11-20T06:13:32;4.82;;;2.35;;
61091;SDS011;46975;51.898;11.444;2022-11-20T06:15:59;4.00;;;2.33;;
61091;SDS011;46975;51.898;11.444;2022-11-20T06:18:25;5.75;;;3.15;;
61091;SDS011;46975;51.898;11.444;2022-11-20T06:20:59;5.22;;;2.63;;
61091;SDS011;46975;51.898;11.444;2022-11-20T06:23:29;7.78;;;2.58;;
61091;SDS011;46975;51.898;11.444;2022-11-20T06:25:56;4.00;;;2.55;;
61091;SDS011;46975;51.898;11.444;2022-11-20T06:28:22;5.22;;;2.50;;
61091;SDS011;46975;51.898;11.444;2022-11-20T06:30:48;4.97;;;2.80;;
61091;SDS011;46975;51.898;11.444;2022-11-20T06:33:13;13.90;;;5.38;;
61091;SDS011;46975;51.898;11.444;2022-11-20T06:35:39;38.45;;;12.85;;
61091;SDS011;46975;51.898;11.444;2022-11-20T06:38:04;16.30;;;6.70;;
61091;SDS011;46975;51.898;11.444;2022-11-20T06:40:30;31.83;;;9.45;;
61091;SDS011;46975;51.898;11.444;2022-11-20T06:42:56;32.80;;;10.35;;
61091;SDS011;46975;51.898;11.444;2022-11-20T06:45:21;18.08;;;7.85;;
61091;SDS011;46975;51.898;11.444;2022-11-20T06:47:47;14.02;;;6.13;;
61091;SDS011;46975;51.898;11.444;2022-11-20T06:50:13;13.18;;;6.72;;
61091;SDS011;46975;51.898;11.444;2022-11-20T06:52:38;12.43;;;5.43;;
61091;SDS011;46975;51.898;11.444;2022-11-20T06:55:04;10.50;;;5.07;;
61091;SDS011;46975;51.898;11.444;2022-11-20T06:57:30;11.25;;;4.85;;
61091;SDS011;46975;51.898;11.444;2022-11-20T06:59:55;7.97;;;3.97;;
61091;SDS011;46975;51.898;11.444;2022-11-20T07:02:21;8.70;;;3.58;;
61091;SDS011;46975;51.898;11.444;2022-11-20T07:04:46;6.72;;;3.08;;
61091;SDS011;46975;51.898;11.444;2022-11-20T07:07:12;8.95;;;2.88;;
61091;SDS011;46975;51.898;11.444;2022-11-20T07:09:38;5.38;;;2.70;;
61091;SDS011;46975;51.898;11.444;2022-11-20T07:12:04;5.90;;;3.40;;
61091;SDS011;46975;51.898;11.444;2022-11-20T07:14:30;9.23;;;3.53;;
61091;SDS011;46975;51.898;11.444;2022-11-20T07:16:55;4.55;;;2.63;;
61091;SDS011;46975;51.898;11.444;2022-11-20T07:19:21;5.22;;;2.88;;
61091;SDS011;46975;51.898;11.444;2022-11-20T07:21:46;4.63;;;2.42;;
61091;SDS011;46975;51.898;11.444;2022-11-20T07:24:12;6.45;;;2.60;;
61091;SDS011;46975;51.898;11.444;2022-11-20T07:26:38;5.53;;;2.47;;
61091;SDS011;46975;51.898;11.444;2022-11-20T07:29:03;4.72;;;3.08;;
61091;SDS011;46975;51.898;11.444;2022-11-20T07:31:29;5.88;;;2.85;;
61091;SDS011;46975;51.898;11.444;2022-11-20T07:33:54;6.78;;;2.83;;
61091;SDS011;46975;51.898;11.444;2022-11-20T07:36:20;5.13;;;3.08;;
61091;SDS011;46975;51.898;11.444;2022-11-20T07:38:46;6.40;;;2.83;;
61091;SDS011;46975;51.898;11.444;2022-11-20T07:41:11;13.60;;;4.82;;
61091;SDS011;46975;51.898;11.444;2022-11-20T07:43:37;17.23;;;6.13;;
61091;SDS011;46975;51.898;11.444;2022-11-20T07:46:02;21.67;;;8.05;;
61091;SDS011;46975;51.898;11.444;2022-11-20T07:48:29;17.58;;;7.80;;
61091;SDS011;46975;51.898;11.444;2022-11-20T07:50:55;18.83;;;7.45;;
61091;SDS011;46975;51.898;11.444;2022-11-20T07:53:21;9.48;;;5.10;;
61091;SDS011;46975;51.898;11.444;2022-11-20T07:55:48;11.60;;;5.78;;
61091;SDS011;46975;51.898;11.444;2022-11-20T07:58:13;7.10;;;3.67;;
61091;SDS011;46975;51.898;11.444;2022-11-20T08:00:40;9.82;;;4.45;;
61091;SDS011;46975;51.898;11.444;2022-11-20T08:03:06;6.18;;;3.30;;
61091;SDS011;46975;51.898;11.444;2022-11-20T08:05:32;4.25;;;2.88;;
61091;SDS011;46975;51.898;11.444;2022-11-20T08:07:58;7.75;;;3.00;;
61091;SDS011;46975;51.898;11.444;2022-11-20T08:10:24;8.07;;;3.65;;
61091;SDS011;46975;51.898;11.444;2022-11-20T08:12:51;13.35;;;4.47;;
61091;SDS011;46975;51.898;11.444;2022-11-20T08:15:37;8.90;;;2.85;;
61091;SDS011;46975;51.898;11.444;2022-11-20T08:18:07;9.98;;;2.17;;
61091;SDS011;46975;51.898;11.444;2022-11-20T08:20:36;5.43;;;2.53;;
61091;SDS011;46975;51.898;11.444;2022-11-20T08:23:03;3.20;;;1.20;;
61091;SDS011;46975;51.898;11.444;2022-11-20T08:25:33;9.32;;;2.45;;
61091;SDS011;46975;51.898;11.444;2022-11-20T08:28:02;8.05;;;2.15;;
61091;SDS011;46975;51.898;11.444;2022-11-20T08:30:32;8.57;;;1.85;;
61091;SDS011;46975;51.898;11.444;2022-11-20T08:33:03;8.38;;;2.03;;
61091;SDS011;46975;51.898;11.444;2022-11-20T08:35:36;8.60;;;3.15;;
61091;SDS011;46975;51.898;11.444;2022-11-20T08:38:03;8.32;;;2.42;;
61091;SDS011;46975;51.898;11.444;2022-11-20T08:40:29;8.05;;;3.33;;
61091;SDS011;46975;51.898;11.444;2022-11-20T08:42:55;9.07;;;3.50;;
61091;SDS011;46975;51.898;11.444;2022-11-20T08:45:21;2.38;;;1.90;;
61091;SDS011;46975;51.898;11.444;2022-11-20T08:47:47;4.50;;;1.55;;
61091;SDS011;46975;51.898;11.444;2022-11-20T08:50:13;3.45;;;2.05;;
61091;SDS011;46975;51.898;11.444;2022-11-20T08:52:40;7.55;;;3.63;;
61091;SDS011;46975;51.898;11.444;2022-11-20T08:55:06;7.63;;;4.43;;
61091;SDS011;46975;51.898;11.444;2022-11-20T08:57:36;8.82;;;4.10;;
61091;SDS011;46975;51.898;11.444;2022-11-20T09:00:03;9.55;;;4.70;;
61091;SDS011;46975;51.898;11.444;2022-11-20T09:02:30;9.15;;;4.10;;
61091;SDS011;46975;51.898;11.444;2022-11-20T09:04:57;11.27;;;5.18;;
61091;SDS011;46975;51.898;11.444;2022-11-20T09:07:23;5.90;;;3.03;;
61091;SDS011;46975;51.898;11.444;2022-11-20T09:09:48;5.75;;;3.13;;
61091;SDS011;46975;51.898;11.444;2022-11-20T09:12:14;5.22;;;3.42;;
61091;SDS011;46975;51.898;11.444;2022-11-20T09:14:40;4.68;;;2.50;;
61091;SDS011;46975;51.898;11.444;2022-11-20T09:17:06;4.88;;;2.85;;
61091;SDS011;46975;51.898;11.444;2022-11-20T09:19:32;7.07;;;3.67;;
61091;SDS011;46975;51.898;11.444;2022-11-20T09:21:58;6.63;;;2.95;;
61091;SDS011;46975;51.898;11.444;2022-11-20T09:24:25;4.72;;;3.05;;
61091;SDS011;46975;51.898;11.444;2022-11-20T09:26:51;7.90;;;4.25;;
61091;SDS011;46975;51.898;11.444;2022-11-20T09:29:17;5.18;;;3.30;;
61091;SDS011;46975;51.898;11.444;2022-11-20T09:31:42;6.63;;;3.72;;
61091;SDS011;46975;51.898;11.444;2022-11-20T09:34:08;5.90;;;3.25;;
61091;SDS011;46975;51.898;11.444;2022-11-20T09:36:34;9.82;;;3.42;;
61091;SDS011;46975;51.898;11.444;2022-11-20T09:39:00;7.57;;;3.40;;
61091;SDS011;46975;51.898;11.444;2022-11-20T09:47:42;2.28;;;1.85;;
61091;SDS011;46975;51.898;11.444;2022-11-20T09:55:36;4.18;;;2.15;;
61091;SDS011;46975;51.898;11.444;2022-11-20T09:58:02;2.47;;;1.40;;
61091;SDS011;46975;51.898;11.444;2022-11-20T10:00:32;2.88;;;1.35;;
61091;SDS011;46975;51.898;11.444;2022-11-20T10:05:53;2.38;;;1.80;;
61091;SDS011;46975;51.898;11.444;2022-11-20T10:11:02;5.82;;;1.98;;
61091;SDS011;46975;51.898;11.444;2022-11-20T10:14:06;5.25;;;2.67;;
61091;SDS011;46975;51.898;11.444;2022-11-20T10:24:34;3.72;;;1.60;;
61091;SDS011;46975;51.898;11.444;2022-11-20T10:30:26;3.40;;;1.85;;
61091;SDS011;46975;51.898;11.444;2022-11-20T10:32:56;4.07;;;3.03;;
61091;SDS011;46975;51.898;11.444;2022-11-20T10:35:35;2.13;;;1.92;;
61091;SDS011;46975;51.898;11.444;2022-11-20T10:38:14;3.35;;;1.70;;
61091;SDS011;46975;51.898;11.444;2022-11-20T10:40:47;3.38;;;1.38;;
61091;SDS011;46975;51.898;11.444;2022-11-20T10:45:55;1.58;;;0.85;;
61091;SDS011;46975;51.898;11.444;2022-11-20T10:48:27;3.53;;;1.02;;
61091;SDS011;46975;51.898;11.444;2022-11-20T10:56:50;0.65;;;0.55;;
61091;SDS011;46975;51.898;11.444;2022-11-20T11:01:45;8.30;;;1.92;;
61091;SDS011;46975;51.898;11.444;2022-11-20T11:06:49;1.60;;;0.57;;
61091;SDS011;46975;51.898;11.444;2022-11-20T11:09:28;3.22;;;0.68;;
61091;SDS011;46975;51.898;11.444;2022-11-20T11:11:59;1.63;;;0.60;;
61091;SDS011;46975;51.898;11.444;2022-11-20T11:14:25;0.40;;;0.30;;
61091;SDS011;46975;51.898;11.444;2022-11-20T11:16:55;1.13;;;0.73;;
61091;SDS011;46975;51.898;11.444;2022-11-20T11:19:22;4.68;;;2.67;;
61091;SDS011;46975;51.898;11.444;2022-11-20T11:21:52;27.70;;;10.52;;
61091;SDS011;46975;51.898;11.444;2022-11-20T11:24:28;6.10;;;1.48;;
61091;SDS011;46975;51.898;11.444;2022-11-20T11:26:59;1.23;;;0.57;;
61091;SDS011;46975;51.898;11.444;2022-11-20T11:29:31;2.30;;;0.70;;
61091;SDS011;46975;51.898;11.444;2022-11-20T11:34:42;2.47;;;1.25;;
61091;SDS011;46975;51.898;11.444;2022-11-20T11:37:13;1.77;;;1.13;;
61091;SDS011;46975;51.898;11.444;2022-11-20T11:39:43;5.88;;;2.30;;
61091;SDS011;46975;51.898;11.444;2022-11-20T11:42:11;10.50;;;7.43;;
61091;SDS011;46975;51.898;11.444;2022-11-20T11:44:43;7.18;;;4.97;;
61091;SDS011;46975;51.898;11.444;2022-11-20T11:55:44;1.55;;;0.88;;
61091;SDS011;46975;51.898;11.444;2022-11-20T12:00:51;1.58;;;1.35;;
61091;SDS011;46975;51.898;11.444;2022-11-20T12:03:39;1.95;;;0.95;;
61091;SDS011;46975;51.898;11.444;2022-11-20T12:06:11;2.70;;;1.42;;
61091;SDS011;46975;51.898;11.444;2022-11-20T12:11:24;1.88;;;1.05;;
61091;SDS011;46975;51.898;11.444;2022-11-20T12:16:49;5.03;;;1.73;;
61091;SDS011;46975;51.898;11.444;2022-11-20T12:24:27;1.98;;;1.20;;
61091;SDS011;46975;51.898;11.444;2022-11-20T12:30:13;1.88;;;1.08;;
61091;SDS011;46975;51.898;11.444;2022-11-20T12:38:34;1.23;;;0.77;;
61091;SDS011;46975;51.898;11.444;2022-11-20T12:41:25;3.08;;;1.20;;
61091;SDS011;46975;51.898;11.444;2022-11-20T12:50:11;4.85;;;1.77;;
61091;SDS011;46975;51.898;11.444;2022-11-20T12:52:43;5.35;;;2.33;;
61091;SDS011;46975;51.898;11.444;2022-11-20T12:55:42;5.70;;;2.97;;
61091;SDS011;46975;51.898;11.444;2022-11-20T13:01:02;3.53;;;2.30;;
61091;SDS011;46975;51.898;11.444;2022-11-20T13:06:32;4.22;;;2.25;;
61091;SDS011;46975;51.898;11.444;2022-11-20T13:08:58;3.58;;;2.03;;
61091;SDS011;46975;51.898;11.444;2022-11-20T13:11:27;2.10;;;1.88;;
61091;SDS011;46975;51.898;11.444;2022-11-20T13:14:23;4.20;;;2.65;;
61091;SDS011;46975;51.898;11.444;2022-11-20T13:19:29;4.18;;;2.85;;
61091;SDS011;46975;51.898;11.444;2022-11-20T13:21:55;4.03;;;2.72;;
61091;SDS011;46975;51.898;11.444;2022-11-20T13:29:36;3.47;;;2.40;;
61091;SDS011;46975;51.898;11.444;2022-11-20T13:32:07;4.75;;;2.78;;
61091;SDS011;46975;51.898;11.444;2022-11-20T13:34:38;4.45;;;2.47;;
61091;SDS011;46975;51.898;11.444;2022-11-20T13:37:04;4.65;;;2.40;;
61091;SDS011;46975;51.898;11.444;2022-11-20T13:39:31;3.67;;;2.22;;
61091;SDS011;46975;51.898;11.444;2022-11-20T13:41:59;5.32;;;3.05;;
61091;SDS011;46975;51.898;11.444;2022-11-20T13:47:03;6.30;;;3.75;;
61091;SDS011;46975;51.898;11.444;2022-11-20T13:49:39;4.82;;;3.28;;
61091;SDS011;46975;51.898;11.444;2022-11-20T13:55:07;5.95;;;3.38;;
61091;SDS011;46975;51.898;11.444;2022-11-20T14:00:30;7.15;;;3.58;;
61091;SDS011;46975;51.898;11.444;2022-11-20T14:05:34;5.82;;;3.15;;
61091;SDS011;46975;51.898;11.444;2022-11-20T14:08:02;6.97;;;2.72;;
61091;SDS011;46975;51.898;11.444;2022-11-20T14:12:56;6.10;;;2.58;;
61091;SDS011;46975;51.898;11.444;2022-11-20T14:15:24;6.60;;;3.08;;
61091;SDS011;46975;51.898;11.444;2022-11-20T14:17:52;4.45;;;2.92;;
61091;SDS011;46975;51.898;11.444;2022-11-20T14:20:18;6.13;;;3.35;;
61091;SDS011;46975;51.898;11.444;2022-11-20T14:22:51;6.28;;;3.10;;
61091;SDS011;46975;51.898;11.444;2022-11-20T14:25:19;5.25;;;2.00;;
61091;SDS011;46975;51.898;11.444;2022-11-20T14:27:50;4.15;;;1.77;;
61091;SDS011;46975;51.898;11.444;2022-11-20T14:30:24;3.03;;;1.60;;
61091;SDS011;46975;51.898;11.444;2022-11-20T14:32:53;3.85;;;2.33;;
61091;SDS011;46975;51.898;11.444;2022-11-20T14:35:23;4.05;;;2.28;;
61091;SDS011;46975;51.898;11.444;2022-11-20T14:37:51;2.97;;;1.95;;
61091;SDS011;46975;51.898;11.444;2022-11-20T14:40:27;7.55;;;3.10;;
61091;SDS011;46975;51.898;11.444;2022-11-20T14:42:54;7.68;;;2.22;;
61091;SDS011;46975;51.898;11.444;2022-11-20T14:45:20;3.08;;;2.00;;
61091;SDS011;46975;51.898;11.444;2022-11-20T14:47:47;3.13;;;1.85;;
61091;SDS011;46975;51.898;11.444;2022-11-20T14:50:16;2.80;;;1.90;;
61091;SDS011;46975;51.898;11.444;2022-11-20T14:52:50;2.85;;;1.98;;
61091;SDS011;46975;51.898;11.444;2022-11-20T14:55:30;5.30;;;2.58;;
61091;SDS011;46975;51.898;11.444;2022-11-20T14:57:59;3.60;;;2.20;;
61091;SDS011;46975;51.898;11.444;2022-11-20T15:00:27;4.13;;;2.05;;
61091;SDS011;46975;51.898;11.444;2022-11-20T15:02:54;4.50;;;2.42;;
61091;SDS011;46975;51.898;11.444;2022-11-20T15:05:21;4.65;;;2.42;;
61091;SDS011;46975;51.898;11.444;2022-11-20T15:07:50;4.70;;;2.20;;
61091;SDS011;46975;51.898;11.444;2022-11-20T15:10:37;3.40;;;1.90;;
61091;SDS011;46975;51.898;11.444;2022-11-20T15:13:10;4.78;;;2.28;;
61091;SDS011;46975;51.898;11.444;2022-11-20T15:15:50;5.78;;;3.22;;
61091;SDS011;46975;51.898;11.444;2022-11-20T15:18:26;5.10;;;2.35;;
61091;SDS011;46975;51.898;11.444;2022-11-20T15:20:57;5.72;;;2.55;;
61091;SDS011;46975;51.898;11.444;2022-11-20T15:23:26;5.70;;;2.80;;
61091;SDS011;46975;51.898;11.444;2022-11-20T15:25:52;4.15;;;2.35;;
61091;SDS011;46975;51.898;11.444;2022-11-20T15:30:58;5.03;;;2.20;;
61091;SDS011;46975;51.898;11.444;2022-11-20T15:33:24;4.05;;;2.92;;
61091;SDS011;46975;51.898;11.444;2022-11-20T15:35:49;6.40;;;2.97;;
61091;SDS011;46975;51.898;11.444;2022-11-20T15:38:15;4.28;;;2.30;;
61091;SDS011;46975;51.898;11.444;2022-11-20T15:40:41;4.63;;;2.85;;
61091;SDS011;46975;51.898;11.444;2022-11-20T15:43:06;7.18;;;3.15;;
61091;SDS011;46975;51.898;11.444;2022-11-20T15:48:23;6.28;;;3.47;;
61091;SDS011;46975;51.898;11.444;2022-11-20T15:50:52;8.32;;;4.47;;
61091;SDS011;46975;51.898;11.444;2022-11-20T15:53:22;6.80;;;3.60;;
61091;SDS011;46975;51.898;11.444;2022-11-20T15:55:48;4.57;;;3.13;;
61091;SDS011;46975;51.898;11.444;2022-11-20T15:58:14;5.90;;;3.63;;
61091;SDS011;46975;51.898;11.444;2022-11-20T16:00:41;8.90;;;4.35;;
61091;SDS011;46975;51.898;11.444;2022-11-20T16:03:11;6.95;;;3.42;;
61091;SDS011;46975;51.898;11.444;2022-11-20T16:05:37;9.68;;;4.35;;
61091;SDS011;46975;51.898;11.444;2022-11-20T16:08:03;12.18;;;5.28;;
61091;SDS011;46975;51.898;11.444;2022-11-20T16:10:29;12.45;;;6.30;;
61091;SDS011;46975;51.898;11.444;2022-11-20T16:12:54;12.15;;;6.47;;
61091;SDS011;46975;51.898;11.444;2022-11-20T16:15:38;10.82;;;5.63;;
61091;SDS011;46975;51.898;11.444;2022-11-20T16:18:10;7.90;;;4.10;;
61091;SDS011;46975;51.898;11.444;2022-11-20T16:20:42;6.68;;;3.58;;
61091;SDS011;46975;51.898;11.444;2022-11-20T16:23:09;4.88;;;2.72;;
61091;SDS011;46975;51.898;11.444;2022-11-20T16:25:35;7.97;;;3.97;;
61091;SDS011;46975;51.898;11.444;2022-11-20T16:28:01;12.93;;;4.47;;
61091;SDS011;46975;51.898;11.444;2022-11-20T16:30:26;26.08;;;8.90;;
61091;SDS011;46975;51.898;11.444;2022-11-20T16:32:52;18.35;;;8.55;;
61091;SDS011;46975;51.898;11.444;2022-11-20T16:35:19;9.75;;;5.13;;
61091;SDS011;46975;51.898;11.444;2022-11-20T16:37:45;19.13;;;8.93;;
61091;SDS011;46975;51.898;11.444;2022-11-20T16:40:11;14.10;;;6.35;;
61091;SDS011;46975;51.898;11.444;2022-11-20T16:42:37;8.20;;;5.03;;
61091;SDS011;46975;51.898;11.444;2022-11-20T16:45:03;10.85;;;5.43;;
61091;SDS011;46975;51.898;11.444;2022-11-20T16:47:35;9.77;;;5.10;;